Pagina principale
METAR-TAF:

METAR-TAF

Aeroporti :

Milano, Italia

Aeroporto di Milano-Malpensa

latitudine: 45-37N, longitudine: 008-44E, altezza: 234 m

Osservazione

Il bollettino è stato emesso 16 minuti fa, alle 01:50 UTC
Vento 6 kt da nord
Temperature 11°C
Umidità 58%
Pressione 1015 hPa
Visibilità 10 km o più
nessuna nube inferiore a 1500 m e nessun cumulonembo

METAR: LIMC 200150Z 01006KT CAVOK 11/03 Q1015 NOSIG

Ora: 04:06 (02:06 UTC)

Previsione

Il bollettino è stato emesso 3 ore e 6 minuti fa, alle 23:00 UTC
Previsione valida dal 20 alle 00 UTC al 21 alle 06 UTC
Vento 10 kt da nord/nord-ovest
Visibilità 10 km o più
Nubi sparse ad un'altezza di 9000 ft

TAF: LIMC 192300Z 2000/2106 34010KT 9999 SCT090

Osservazioni e previsioni meteorologiche di più di 4000 aeroporti (messaggi METAR e TAF).

Le stazioni disponibili sono rappresentate dai dischi gialli e rossi sulla carta.

Puntare il mouse per vedere il nome della stazione.

Clicca sopra per visualizzare le osservazioni e previsioni meteorologiche.

Per cambiare la mappa : fare clic sui pulsanti verdi con una croce nera per ingrandire, il pulsante verde con un trattino per diminuire, o sulla freccia verde per le mappe adiacenti.


METAR-TAF: